createdAt,value
2023-03-23T00:00:51.623Z,7.24
2023-03-23T00:10:57.810Z,7.22
2023-03-23T00:21:00.138Z,7.23
2023-03-23T00:31:07.268Z,7.18
2023-03-23T00:41:12.559Z,7.12
2023-03-23T00:51:14.891Z,7.03
2023-03-23T01:01:17.183Z,6.89
2023-03-23T01:11:19.479Z,6.89
2023-03-23T01:21:22.347Z,6.97
2023-03-23T01:31:27.403Z,6.94
2023-03-23T01:41:29.959Z,6.94
2023-03-23T01:51:41.882Z,6.89
2023-03-23T02:01:46.288Z,6.92
2023-03-23T02:11:51.335Z,6.95
2023-03-23T02:22:08.576Z,6.96
2023-03-23T02:32:40.700Z,6.98
2023-03-23T02:42:47.938Z,7.03
2023-03-23T02:52:51.768Z,7.00
2023-03-23T03:02:57.368Z,7.01
2023-03-23T03:13:21.103Z,7.32
2023-03-23T03:23:28.928Z,7.85
2023-03-23T06:05:09.859Z,6.82
2023-03-23T06:15:12.813Z,8.55
2023-03-23T06:25:17.097Z,9.95
2023-03-23T06:35:19.401Z,10.99
2023-03-23T06:45:21.897Z,11.29
2023-03-23T06:55:24.262Z,11.45
2023-03-23T07:05:26.570Z,11.51
2023-03-23T07:15:28.875Z,12.01
2023-03-23T07:25:31.486Z,13.29
2023-03-23T07:35:34.594Z,13.67
2023-03-23T07:45:37.176Z,15.59
2023-03-23T07:55:39.674Z,18.63
2023-03-23T08:05:43.884Z,21.67
2023-03-23T08:15:46.627Z,17.91
2023-03-23T08:25:49.737Z,17.26
2023-03-23T08:35:59.495Z,17.02
2023-03-23T08:46:07.862Z,17.47
2023-03-23T08:56:13.260Z,17.10
2023-03-23T09:06:15.630Z,16.13
2023-03-23T09:16:17.936Z,16.04
2023-03-23T09:26:20.381Z,15.63
2023-03-23T09:36:23.148Z,15.33
2023-03-23T09:46:49.369Z,16.20
2023-03-23T09:56:52.839Z,16.60
2023-03-23T10:07:17.859Z,16.26
2023-03-23T10:17:32.523Z,16.05
2023-03-23T10:27:45.507Z,15.91
2023-03-23T10:37:58.122Z,15.97
2023-03-23T10:48:05.316Z,16.21
2023-03-23T10:58:11.807Z,17.40
2023-03-23T11:08:17.189Z,17.70
2023-03-23T11:18:41.308Z,17.31
2023-03-23T11:29:13.202Z,18.35
2023-03-23T11:39:29.012Z,18.91
2023-03-23T11:49:41.462Z,19.23
2023-03-23T11:59:43.745Z,19.20
2023-03-23T12:09:50.313Z,19.11
2023-03-23T12:20:15.810Z,18.60
2023-03-23T12:30:46.263Z,19.23
2023-03-23T12:41:08.510Z,18.46
2023-03-23T12:51:25.861Z,18.67
2023-03-23T13:11:38.910Z,18.01
2023-03-23T13:22:07.419Z,17.07
2023-03-23T13:32:16.401Z,16.78
2023-03-23T13:42:21.936Z,16.40
2023-03-23T13:52:41.761Z,16.07
2023-03-23T14:02:46.006Z,15.95
2023-03-23T14:12:53.851Z,15.61
2023-03-23T14:22:57.554Z,15.63
2023-03-23T14:33:06.712Z,15.47
2023-03-23T14:43:13.225Z,15.47
2023-03-23T14:53:33.472Z,15.45
2023-03-23T15:03:41.098Z,15.66
2023-03-23T15:13:47.043Z,15.66
2023-03-23T15:23:49.505Z,15.34
2023-03-23T15:33:59.915Z,15.01
2023-03-23T15:44:20.086Z,14.68
2023-03-23T15:54:22.416Z,14.15
2023-03-23T16:04:24.917Z,13.77
2023-03-23T16:14:27.201Z,13.73
2023-03-23T16:24:29.617Z,13.51
2023-03-23T16:34:33.998Z,13.41
2023-03-23T16:44:36.501Z,13.33
2023-03-23T16:54:38.820Z,13.24
2023-03-23T17:04:45.838Z,13.12
2023-03-23T17:14:48.144Z,13.03
2023-03-23T17:24:51.265Z,12.93
2023-03-23T17:34:54.225Z,12.80
2023-03-23T17:44:56.643Z,12.60
2023-03-23T17:54:59.027Z,12.48
2023-03-23T18:05:01.405Z,12.32
2023-03-23T18:15:04.593Z,12.37
2023-03-23T18:25:07.084Z,12.38
2023-03-23T18:35:11.183Z,12.38
2023-03-23T18:45:13.610Z,12.38
2023-03-23T18:55:16.381Z,12.30
2023-03-23T19:05:18.875Z,12.40
2023-03-23T19:15:21.553Z,12.30
2023-03-23T19:25:23.885Z,11.81
2023-03-23T19:35:26.587Z,11.51
2023-03-23T19:45:29.127Z,11.09
2023-03-23T19:55:31.555Z,10.87
2023-03-23T20:05:35.628Z,10.53
2023-03-23T20:15:38.126Z,10.04
2023-03-23T20:25:40.857Z,9.60
2023-03-23T20:35:43.532Z,9.24
2023-03-23T20:45:46.977Z,8.82
2023-03-23T20:55:51.645Z,8.52
2023-03-23T21:05:54.034Z,8.23
2023-03-23T21:15:56.892Z,8.13
2023-03-23T21:26:02.248Z,7.80
2023-03-23T21:40:14.336Z,7.85
2023-03-23T21:50:16.995Z,8.35
2023-03-23T22:00:19.424Z,8.60
2023-03-23T22:10:21.725Z,9.02
2023-03-23T22:20:24.163Z,9.35
2023-03-23T22:30:29.921Z,9.72
2023-03-23T22:40:32.228Z,9.95
2023-03-23T22:50:34.810Z,10.40
2023-03-23T23:00:39.366Z,10.55
2023-03-23T23:10:44.241Z,10.56
2023-03-23T23:20:51.426Z,10.58
2023-03-23T23:30:54.140Z,10.22
2023-03-23T23:40:56.437Z,10.08
2023-03-23T23:50:58.697Z,10.00
